sensor_id;sensor_type;location;lat;lon;timestamp;temperature;humidity
64855;DHT22;51321;50.428;8.378;2024-01-30T00:01:52;0.20;99.90
64855;DHT22;51321;50.428;8.378;2024-01-30T00:04:32;0.20;99.90
64855;DHT22;51321;50.428;8.378;2024-01-30T00:07:12;0.10;99.90
64855;DHT22;51321;50.428;8.378;2024-01-30T00:09:54;0.20;99.90
64855;DHT22;51321;50.428;8.378;2024-01-30T00:12:35;0.20;99.90
64855;DHT22;51321;50.428;8.378;2024-01-30T00:15:16;0.30;99.90
64855;DHT22;51321;50.428;8.378;2024-01-30T00:17:58;0.30;99.90
64855;DHT22;51321;50.428;8.378;2024-01-30T00:20:38;0.30;99.90
64855;DHT22;51321;50.428;8.378;2024-01-30T00:23:19;0.20;99.90
64855;DHT22;51321;50.428;8.378;2024-01-30T00:26:00;0.20;99.90
64855;DHT22;51321;50.428;8.378;2024-01-30T00:28:41;0.10;99.90
64855;DHT22;51321;50.428;8.378;2024-01-30T00:31:22;0.10;99.90
64855;DHT22;51321;50.428;8.378;2024-01-30T00:34:02;0.10;99.90
64855;DHT22;51321;50.428;8.378;2024-01-30T00:36:42;0.10;99.90
64855;DHT22;51321;50.428;8.378;2024-01-30T00:39:23;0.10;99.90
64855;DHT22;51321;50.428;8.378;2024-01-30T00:42:05;0.00;99.90
64855;DHT22;51321;50.428;8.378;2024-01-30T00:44:46;0.10;99.90
64855;DHT22;51321;50.428;8.378;2024-01-30T00:47:26;0.20;99.90
64855;DHT22;51321;50.428;8.378;2024-01-30T00:50:09;0.10;99.90
64855;DHT22;51321;50.428;8.378;2024-01-30T00:52:49;0.30;99.90
64855;DHT22;51321;50.428;8.378;2024-01-30T00:55:30;0.20;99.90
64855;DHT22;51321;50.428;8.378;2024-01-30T00:58:12;0.10;99.90
64855;DHT22;51321;50.428;8.378;2024-01-30T01:00:52;0.00;99.90
64855;DHT22;51321;50.428;8.378;2024-01-30T01:03:33;0.00;99.90
64855;DHT22;51321;50.428;8.378;2024-01-30T01:06:13;0.00;99.90
64855;DHT22;51321;50.428;8.378;2024-01-30T01:08:53;0.00;99.90
64855;DHT22;51321;50.428;8.378;2024-01-30T01:11:34;0.00;99.90
64855;DHT22;51321;50.428;8.378;2024-01-30T01:14:16;0.10;99.90
64855;DHT22;51321;50.428;8.378;2024-01-30T01:16:57;0.20;99.90
64855;DHT22;51321;50.428;8.378;2024-01-30T01:19:37;0.30;99.90
64855;DHT22;51321;50.428;8.378;2024-01-30T01:22:18;0.30;99.90
64855;DHT22;51321;50.428;8.378;2024-01-30T01:24:58;0.20;99.90
64855;DHT22;51321;50.428;8.378;2024-01-30T01:27:39;0.20;99.90
64855;DHT22;51321;50.428;8.378;2024-01-30T01:30:22;0.10;99.90
64855;DHT22;51321;50.428;8.378;2024-01-30T01:33:05;0.10;99.90
64855;DHT22;51321;50.428;8.378;2024-01-30T01:35:46;0.00;99.90
64855;DHT22;51321;50.428;8.378;2024-01-30T01:38:26;0.00;99.90
64855;DHT22;51321;50.428;8.378;2024-01-30T01:41:07;0.00;99.90
64855;DHT22;51321;50.428;8.378;2024-01-30T01:43:47;-0.10;99.90
64855;DHT22;51321;50.428;8.378;2024-01-30T01:46:31;0.10;99.90
64855;DHT22;51321;50.428;8.378;2024-01-30T01:49:13;0.10;99.90
64855;DHT22;51321;50.428;8.378;2024-01-30T01:51:55;0.10;99.90
64855;DHT22;51321;50.428;8.378;2024-01-30T01:54:36;0.10;99.90
64855;DHT22;51321;50.428;8.378;2024-01-30T01:57:17;0.00;99.90
64855;DHT22;51321;50.428;8.378;2024-01-30T01:59:58;0.00;99.90
64855;DHT22;51321;50.428;8.378;2024-01-30T02:02:40;0.10;99.90
64855;DHT22;51321;50.428;8.378;2024-01-30T02:05:21;0.20;99.90
64855;DHT22;51321;50.428;8.378;2024-01-30T02:08:01;0.00;99.90
64855;DHT22;51321;50.428;8.378;2024-01-30T02:10:43;0.00;99.90
64855;DHT22;51321;50.428;8.378;2024-01-30T02:13:23;0.00;99.90
64855;DHT22;51321;50.428;8.378;2024-01-30T02:16:05;0.00;99.90
64855;DHT22;51321;50.428;8.378;2024-01-30T02:18:46;-0.10;99.90
64855;DHT22;51321;50.428;8.378;2024-01-30T02:21:28;0.00;99.90
64855;DHT22;51321;50.428;8.378;2024-01-30T02:24:09;-0.10;99.90
64855;DHT22;51321;50.428;8.378;2024-01-30T02:26:49;-0.10;99.90
64855;DHT22;51321;50.428;8.378;2024-01-30T02:29:29;-0.20;99.90
64855;DHT22;51321;50.428;8.378;2024-01-30T02:32:10;-0.20;99.90
64855;DHT22;51321;50.428;8.378;2024-01-30T02:34:51;-0.10;99.90
64855;DHT22;51321;50.428;8.378;2024-01-30T02:37:35;0.00;99.90
64855;DHT22;51321;50.428;8.378;2024-01-30T02:40:16;0.00;99.90
64855;DHT22;51321;50.428;8.378;2024-01-30T02:42:58;-0.10;99.90
64855;DHT22;51321;50.428;8.378;2024-01-30T02:45:40;-0.10;99.90
64855;DHT22;51321;50.428;8.378;2024-01-30T02:48:24;-0.10;99.90
64855;DHT22;51321;50.428;8.378;2024-01-30T02:51:11;-0.20;99.90
64855;DHT22;51321;50.428;8.378;2024-01-30T02:53:57;-0.10;99.90
64855;DHT22;51321;50.428;8.378;2024-01-30T02:56:38;0.00;99.90
64855;DHT22;51321;50.428;8.378;2024-01-30T02:59:19;-0.20;99.90
64855;DHT22;51321;50.428;8.378;2024-01-30T03:02:00;-0.30;99.90
64855;DHT22;51321;50.428;8.378;2024-01-30T03:04:41;-0.30;99.90
64855;DHT22;51321;50.428;8.378;2024-01-30T03:07:22;-0.30;99.90
64855;DHT22;51321;50.428;8.378;2024-01-30T03:10:06;-0.20;99.90
64855;DHT22;51321;50.428;8.378;2024-01-30T03:12:48;-0.20;99.90
64855;DHT22;51321;50.428;8.378;2024-01-30T03:15:31;-0.10;99.90
64855;DHT22;51321;50.428;8.378;2024-01-30T03:18:11;-0.30;99.90
64855;DHT22;51321;50.428;8.378;2024-01-30T03:20:53;-0.40;99.90
64855;DHT22;51321;50.428;8.378;2024-01-30T03:23:33;-0.30;99.90
64855;DHT22;51321;50.428;8.378;2024-01-30T03:26:16;-0.10;99.90
64855;DHT22;51321;50.428;8.378;2024-01-30T03:28:58;-0.20;99.90
64855;DHT22;51321;50.428;8.378;2024-01-30T03:31:39;-0.30;99.90
64855;DHT22;51321;50.428;8.378;2024-01-30T03:34:19;-0.40;99.90
64855;DHT22;51321;50.428;8.378;2024-01-30T03:37:00;-0.30;99.90
64855;DHT22;51321;50.428;8.378;2024-01-30T03:39:41;-0.40;99.90
64855;DHT22;51321;50.428;8.378;2024-01-30T03:42:23;-0.40;99.90
64855;DHT22;51321;50.428;8.378;2024-01-30T03:45:05;-0.30;99.90
64855;DHT22;51321;50.428;8.378;2024-01-30T03:47:45;-0.30;99.90
64855;DHT22;51321;50.428;8.378;2024-01-30T03:50:26;-0.30;99.90
64855;DHT22;51321;50.428;8.378;2024-01-30T03:53:07;-0.30;99.90
64855;DHT22;51321;50.428;8.378;2024-01-30T03:55:48;-0.20;99.90
64855;DHT22;51321;50.428;8.378;2024-01-30T03:58:30;-0.30;99.90
64855;DHT22;51321;50.428;8.378;2024-01-30T04:01:13;-0.20;99.90
64855;DHT22;51321;50.428;8.378;2024-01-30T04:03:54;-0.30;99.90
64855;DHT22;51321;50.428;8.378;2024-01-30T04:06:37;-0.30;99.90
64855;DHT22;51321;50.428;8.378;2024-01-30T04:09:20;-0.40;99.90
64855;DHT22;51321;50.428;8.378;2024-01-30T04:12:04;-0.30;99.90
64855;DHT22;51321;50.428;8.378;2024-01-30T04:14:46;-0.40;99.90
64855;DHT22;51321;50.428;8.378;2024-01-30T04:17:31;-0.50;99.90
64855;DHT22;51321;50.428;8.378;2024-01-30T04:20:14;-0.60;99.90
64855;DHT22;51321;50.428;8.378;2024-01-30T04:22:58;-0.40;99.90
64855;DHT22;51321;50.428;8.378;2024-01-30T04:25:39;-0.50;99.90
64855;DHT22;51321;50.428;8.378;2024-01-30T04:28:21;-0.60;99.90
64855;DHT22;51321;50.428;8.378;2024-01-30T04:31:04;-0.50;99.90
64855;DHT22;51321;50.428;8.378;2024-01-30T04:33:44;-0.40;99.90
64855;DHT22;51321;50.428;8.378;2024-01-30T04:36:25;-0.40;99.90
64855;DHT22;51321;50.428;8.378;2024-01-30T04:39:05;-0.50;99.90
64855;DHT22;51321;50.428;8.378;2024-01-30T04:41:49;-0.50;99.90
64855;DHT22;51321;50.428;8.378;2024-01-30T04:44:37;-0.60;99.90
64855;DHT22;51321;50.428;8.378;2024-01-30T04:47:23;-0.50;99.90
64855;DHT22;51321;50.428;8.378;2024-01-30T04:50:08;-0.40;99.90
64855;DHT22;51321;50.428;8.378;2024-01-30T04:52:49;-0.50;99.90
64855;DHT22;51321;50.428;8.378;2024-01-30T04:55:32;-0.50;99.90
64855;DHT22;51321;50.428;8.378;2024-01-30T04:58:12;-0.50;99.90
64855;DHT22;51321;50.428;8.378;2024-01-30T05:00:53;-0.50;99.90
64855;DHT22;51321;50.428;8.378;2024-01-30T05:03:35;-0.50;99.90
64855;DHT22;51321;50.428;8.378;2024-01-30T05:06:24;-0.40;99.90
64855;DHT22;51321;50.428;8.378;2024-01-30T05:09:07;-0.30;99.90
64855;DHT22;51321;50.428;8.378;2024-01-30T05:11:48;-0.40;99.90
64855;DHT22;51321;50.428;8.378;2024-01-30T05:14:28;-0.50;99.90
64855;DHT22;51321;50.428;8.378;2024-01-30T05:17:09;-0.60;99.90
64855;DHT22;51321;50.428;8.378;2024-01-30T05:19:53;-0.60;99.90
64855;DHT22;51321;50.428;8.378;2024-01-30T05:22:35;-0.60;99.90
64855;DHT22;51321;50.428;8.378;2024-01-30T05:25:15;-0.60;99.90
64855;DHT22;51321;50.428;8.378;2024-01-30T05:27:56;-0.60;99.90
64855;DHT22;51321;50.428;8.378;2024-01-30T05:30:37;-0.50;99.90
64855;DHT22;51321;50.428;8.378;2024-01-30T05:33:18;-0.40;99.90
64855;DHT22;51321;50.428;8.378;2024-01-30T05:36:00;-0.40;99.90
64855;DHT22;51321;50.428;8.378;2024-01-30T05:38:41;-0.50;99.90
64855;DHT22;51321;50.428;8.378;2024-01-30T05:41:23;-0.60;99.90
64855;DHT22;51321;50.428;8.378;2024-01-30T05:44:03;-0.60;99.90
64855;DHT22;51321;50.428;8.378;2024-01-30T05:46:44;-0.60;99.90
64855;DHT22;51321;50.428;8.378;2024-01-30T05:49:25;-0.70;99.90
64855;DHT22;51321;50.428;8.378;2024-01-30T05:52:08;-0.70;99.90
64855;DHT22;51321;50.428;8.378;2024-01-30T05:54:49;-0.80;99.90
64855;DHT22;51321;50.428;8.378;2024-01-30T05:57:31;-0.70;99.90
64855;DHT22;51321;50.428;8.378;2024-01-30T06:00:12;-0.70;99.90
64855;DHT22;51321;50.428;8.378;2024-01-30T06:02:57;-0.70;99.90
64855;DHT22;51321;50.428;8.378;2024-01-30T06:05:39;-0.70;99.90
64855;DHT22;51321;50.428;8.378;2024-01-30T06:08:21;-0.60;99.90
64855;DHT22;51321;50.428;8.378;2024-01-30T06:11:02;-0.60;99.90
64855;DHT22;51321;50.428;8.378;2024-01-30T06:13:43;-0.60;99.90
64855;DHT22;51321;50.428;8.378;2024-01-30T06:16:23;-0.60;99.90
64855;DHT22;51321;50.428;8.378;2024-01-30T06:19:04;-0.70;99.90
64855;DHT22;51321;50.428;8.378;2024-01-30T06:21:45;-0.70;99.90
64855;DHT22;51321;50.428;8.378;2024-01-30T06:24:29;-0.70;99.90
64855;DHT22;51321;50.428;8.378;2024-01-30T06:27:10;-0.80;99.90
64855;DHT22;51321;50.428;8.378;2024-01-30T06:29:52;-0.80;99.90
64855;DHT22;51321;50.428;8.378;2024-01-30T06:32:33;-0.70;99.90
64855;DHT22;51321;50.428;8.378;2024-01-30T06:35:14;-0.70;99.90
64855;DHT22;51321;50.428;8.378;2024-01-30T06:37:57;-0.70;99.90
64855;DHT22;51321;50.428;8.378;2024-01-30T06:40:39;-0.60;99.90
64855;DHT22;51321;50.428;8.378;2024-01-30T06:43:20;-0.70;99.90
64855;DHT22;51321;50.428;8.378;2024-01-30T06:46:02;-0.70;99.90
64855;DHT22;51321;50.428;8.378;2024-01-30T06:48:42;-0.70;99.90
64855;DHT22;51321;50.428;8.378;2024-01-30T06:51:24;-0.90;99.90
64855;DHT22;51321;50.428;8.378;2024-01-30T06:54:05;-0.90;99.90
64855;DHT22;51321;50.428;8.378;2024-01-30T06:56:47;-0.90;99.90
64855;DHT22;51321;50.428;8.378;2024-01-30T06:59:28;-0.90;99.90
64855;DHT22;51321;50.428;8.378;2024-01-30T07:02:10;-0.80;99.90
64855;DHT22;51321;50.428;8.378;2024-01-30T07:04:51;-0.90;99.90
64855;DHT22;51321;50.428;8.378;2024-01-30T07:07:31;-0.90;99.90
64855;DHT22;51321;50.428;8.378;2024-01-30T07:10:13;-0.80;99.90
64855;DHT22;51321;50.428;8.378;2024-01-30T07:12:56;-0.80;99.90
64855;DHT22;51321;50.428;8.378;2024-01-30T07:15:38;-0.70;99.90
64855;DHT22;51321;50.428;8.378;2024-01-30T07:18:19;-0.70;99.90
64855;DHT22;51321;50.428;8.378;2024-01-30T07:21:00;-0.80;99.90
64855;DHT22;51321;50.428;8.378;2024-01-30T07:23:42;-0.80;99.90
64855;DHT22;51321;50.428;8.378;2024-01-30T07:26:30;-0.80;99.90
64855;DHT22;51321;50.428;8.378;2024-01-30T07:29:12;-0.80;99.90
64855;DHT22;51321;50.428;8.378;2024-01-30T07:31:52;-0.70;99.90
64855;DHT22;51321;50.428;8.378;2024-01-30T07:34:33;-0.80;99.90
64855;DHT22;51321;50.428;8.378;2024-01-30T07:37:15;-0.70;99.90
64855;DHT22;51321;50.428;8.378;2024-01-30T07:39:57;-0.70;99.90
64855;DHT22;51321;50.428;8.378;2024-01-30T07:42:38;-0.60;99.90
64855;DHT22;51321;50.428;8.378;2024-01-30T07:45:22;-0.60;99.90
64855;DHT22;51321;50.428;8.378;2024-01-30T07:48:05;-0.60;99.90
64855;DHT22;51321;50.428;8.378;2024-01-30T07:50:46;-0.60;99.90
64855;DHT22;51321;50.428;8.378;2024-01-30T07:53:27;-0.50;99.90
64855;DHT22;51321;50.428;8.378;2024-01-30T07:56:15;-0.40;99.90
64855;DHT22;51321;50.428;8.378;2024-01-30T07:58:57;-0.40;99.90
64855;DHT22;51321;50.428;8.378;2024-01-30T08:01:42;-0.40;99.90
64855;DHT22;51321;50.428;8.378;2024-01-30T08:04:24;-0.30;99.90
64855;DHT22;51321;50.428;8.378;2024-01-30T08:07:05;-0.30;99.90
64855;DHT22;51321;50.428;8.378;2024-01-30T08:09:45;-0.20;99.90
64855;DHT22;51321;50.428;8.378;2024-01-30T08:12:29;-0.10;99.90
64855;DHT22;51321;50.428;8.378;2024-01-30T08:15:10;-0.10;99.90
64855;DHT22;51321;50.428;8.378;2024-01-30T08:17:55;0.00;99.90
64855;DHT22;51321;50.428;8.378;2024-01-30T08:20:37;0.10;99.90
64855;DHT22;51321;50.428;8.378;2024-01-30T08:23:18;0.10;99.90
64855;DHT22;51321;50.428;8.378;2024-01-30T08:25:59;0.20;99.90
64855;DHT22;51321;50.428;8.378;2024-01-30T08:28:39;0.30;99.90
64855;DHT22;51321;50.428;8.378;2024-01-30T08:31:21;0.40;99.90
64855;DHT22;51321;50.428;8.378;2024-01-30T08:34:03;0.40;99.90
64855;DHT22;51321;50.428;8.378;2024-01-30T08:36:44;0.50;99.90
64855;DHT22;51321;50.428;8.378;2024-01-30T08:39:24;0.60;99.90
64855;DHT22;51321;50.428;8.378;2024-01-30T08:42:05;0.70;99.90
64855;DHT22;51321;50.428;8.378;2024-01-30T08:44:47;0.80;99.90
64855;DHT22;51321;50.428;8.378;2024-01-30T08:47:28;0.90;99.90
64855;DHT22;51321;50.428;8.378;2024-01-30T08:50:11;0.90;99.90
64855;DHT22;51321;50.428;8.378;2024-01-30T08:52:51;1.00;99.90
64855;DHT22;51321;50.428;8.378;2024-01-30T08:55:33;1.10;99.90
64855;DHT22;51321;50.428;8.378;2024-01-30T08:58:15;1.00;99.90
64855;DHT22;51321;50.428;8.378;2024-01-30T09:00:58;1.10;99.90
64855;DHT22;51321;50.428;8.378;2024-01-30T09:03:43;1.10;99.90
64855;DHT22;51321;50.428;8.378;2024-01-30T09:06:26;1.00;99.90
64855;DHT22;51321;50.428;8.378;2024-01-30T09:09:08;1.10;99.90
64855;DHT22;51321;50.428;8.378;2024-01-30T09:11:50;1.10;99.90
64855;DHT22;51321;50.428;8.378;2024-01-30T09:14:30;1.20;99.90
64855;DHT22;51321;50.428;8.378;2024-01-30T09:17:11;1.30;99.90
64855;DHT22;51321;50.428;8.378;2024-01-30T09:19:52;1.30;99.90
64855;DHT22;51321;50.428;8.378;2024-01-30T09:22:34;1.40;99.90
64855;DHT22;51321;50.428;8.378;2024-01-30T09:25:15;1.40;99.90
64855;DHT22;51321;50.428;8.378;2024-01-30T09:27:58;1.50;99.90
64855;DHT22;51321;50.428;8.378;2024-01-30T09:30:39;1.60;99.90
64855;DHT22;51321;50.428;8.378;2024-01-30T09:33:20;1.80;99.90
64855;DHT22;51321;50.428;8.378;2024-01-30T09:36:01;1.80;99.90
64855;DHT22;51321;50.428;8.378;2024-01-30T09:38:43;2.00;99.90
64855;DHT22;51321;50.428;8.378;2024-01-30T09:41:24;2.00;99.90
64855;DHT22;51321;50.428;8.378;2024-01-30T09:44:06;2.00;99.90
64855;DHT22;51321;50.428;8.378;2024-01-30T09:46:47;2.10;99.90
64855;DHT22;51321;50.428;8.378;2024-01-30T09:49:32;2.20;99.90
64855;DHT22;51321;50.428;8.378;2024-01-30T09:52:14;2.20;99.90
64855;DHT22;51321;50.428;8.378;2024-01-30T09:54:59;2.20;99.90
64855;DHT22;51321;50.428;8.378;2024-01-30T09:57:41;2.30;99.90
64855;DHT22;51321;50.428;8.378;2024-01-30T10:00:22;2.30;99.90
64855;DHT22;51321;50.428;8.378;2024-01-30T10:03:06;2.30;99.90
64855;DHT22;51321;50.428;8.378;2024-01-30T10:05:52;2.40;99.90
64855;DHT22;51321;50.428;8.378;2024-01-30T10:08:34;2.50;99.90
64855;DHT22;51321;50.428;8.378;2024-01-30T10:11:16;2.50;99.90
64855;DHT22;51321;50.428;8.378;2024-01-30T10:13:56;2.60;99.90
64855;DHT22;51321;50.428;8.378;2024-01-30T10:16:37;2.50;99.90
64855;DHT22;51321;50.428;8.378;2024-01-30T10:19:20;2.60;99.90
64855;DHT22;51321;50.428;8.378;2024-01-30T10:22:01;2.60;99.90
64855;DHT22;51321;50.428;8.378;2024-01-30T10:24:42;2.60;99.90
64855;DHT22;51321;50.428;8.378;2024-01-30T10:27:26;2.70;99.90
64855;DHT22;51321;50.428;8.378;2024-01-30T10:30:09;2.70;99.90
64855;DHT22;51321;50.428;8.378;2024-01-30T10:32:50;2.90;99.90
64855;DHT22;51321;50.428;8.378;2024-01-30T10:35:31;2.90;99.90
64855;DHT22;51321;50.428;8.378;2024-01-30T10:38:15;2.90;99.90
64855;DHT22;51321;50.428;8.378;2024-01-30T10:40:57;3.00;99.90
64855;DHT22;51321;50.428;8.378;2024-01-30T10:43:41;3.10;99.90
64855;DHT22;51321;50.428;8.378;2024-01-30T10:46:31;3.20;99.90
64855;DHT22;51321;50.428;8.378;2024-01-30T10:49:14;3.40;99.90
64855;DHT22;51321;50.428;8.378;2024-01-30T10:51:56;3.40;99.90
64855;DHT22;51321;50.428;8.378;2024-01-30T10:54:37;3.40;99.90
64855;DHT22;51321;50.428;8.378;2024-01-30T10:57:19;3.40;99.90
64855;DHT22;51321;50.428;8.378;2024-01-30T11:00:07;3.40;99.90
64855;DHT22;51321;50.428;8.378;2024-01-30T11:02:50;3.50;99.90
64855;DHT22;51321;50.428;8.378;2024-01-30T11:05:33;3.60;99.90
64855;DHT22;51321;50.428;8.378;2024-01-30T11:08:14;3.70;99.90
64855;DHT22;51321;50.428;8.378;2024-01-30T11:10:56;3.80;99.90
64855;DHT22;51321;50.428;8.378;2024-01-30T11:13:37;4.00;99.90
64855;DHT22;51321;50.428;8.378;2024-01-30T11:16:20;4.30;99.90
64855;DHT22;51321;50.428;8.378;2024-01-30T11:19:01;4.50;99.90
64855;DHT22;51321;50.428;8.378;2024-01-30T11:21:42;4.70;99.90
64855;DHT22;51321;50.428;8.378;2024-01-30T11:24:24;4.70;99.90
64855;DHT22;51321;50.428;8.378;2024-01-30T11:27:08;4.80;99.90
64855;DHT22;51321;50.428;8.378;2024-01-30T11:29:50;4.70;99.90
64855;DHT22;51321;50.428;8.378;2024-01-30T11:32:32;4.70;99.90
64855;DHT22;51321;50.428;8.378;2024-01-30T11:35:13;4.70;99.90
64855;DHT22;51321;50.428;8.378;2024-01-30T11:37:57;4.60;99.90
64855;DHT22;51321;50.428;8.378;2024-01-30T11:40:39;4.60;99.90
64855;DHT22;51321;50.428;8.378;2024-01-30T11:43:21;4.80;99.90
64855;DHT22;51321;50.428;8.378;2024-01-30T11:46:02;4.90;99.90
64855;DHT22;51321;50.428;8.378;2024-01-30T11:48:44;4.90;99.90
64855;DHT22;51321;50.428;8.378;2024-01-30T11:51:25;4.90;99.90
64855;DHT22;51321;50.428;8.378;2024-01-30T11:54:07;4.90;99.90
64855;DHT22;51321;50.428;8.378;2024-01-30T11:56:47;5.00;99.90
64855;DHT22;51321;50.428;8.378;2024-01-30T11:59:28;5.20;99.90
64855;DHT22;51321;50.428;8.378;2024-01-30T12:02:09;5.30;99.90
64855;DHT22;51321;50.428;8.378;2024-01-30T12:04:56;5.70;99.90
64855;DHT22;51321;50.428;8.378;2024-01-30T12:07:38;6.20;99.90
64855;DHT22;51321;50.428;8.378;2024-01-30T12:10:19;6.60;99.90
64855;DHT22;51321;50.428;8.378;2024-01-30T12:13:01;6.70;99.90
64855;DHT22;51321;50.428;8.378;2024-01-30T12:15:43;6.60;99.90
64855;DHT22;51321;50.428;8.378;2024-01-30T12:18:24;6.70;99.90
64855;DHT22;51321;50.428;8.378;2024-01-30T12:21:08;6.60;99.90
64855;DHT22;51321;50.428;8.378;2024-01-30T12:23:49;6.60;99.90
64855;DHT22;51321;50.428;8.378;2024-01-30T12:26:29;6.50;99.90
64855;DHT22;51321;50.428;8.378;2024-01-30T12:29:11;6.40;99.90
64855;DHT22;51321;50.428;8.378;2024-01-30T12:31:53;6.40;99.90
64855;DHT22;51321;50.428;8.378;2024-01-30T12:34:34;6.40;99.90
64855;DHT22;51321;50.428;8.378;2024-01-30T12:37:19;6.40;99.90
64855;DHT22;51321;50.428;8.378;2024-01-30T12:40:02;6.30;99.90
64855;DHT22;51321;50.428;8.378;2024-01-30T12:42:45;6.40;99.90
64855;DHT22;51321;50.428;8.378;2024-01-30T12:45:28;6.30;99.90
64855;DHT22;51321;50.428;8.378;2024-01-30T12:48:09;6.30;99.90
64855;DHT22;51321;50.428;8.378;2024-01-30T12:50:50;6.30;99.90
64855;DHT22;51321;50.428;8.378;2024-01-30T12:53:33;6.40;99.90
64855;DHT22;51321;50.428;8.378;2024-01-30T12:56:13;6.40;99.90
64855;DHT22;51321;50.428;8.378;2024-01-30T12:58:55;6.40;99.90
64855;DHT22;51321;50.428;8.378;2024-01-30T13:01:35;6.40;99.90
64855;DHT22;51321;50.428;8.378;2024-01-30T13:04:16;6.40;99.90
64855;DHT22;51321;50.428;8.378;2024-01-30T13:06:57;6.50;99.90
64855;DHT22;51321;50.428;8.378;2024-01-30T13:09:41;6.50;99.90
64855;DHT22;51321;50.428;8.378;2024-01-30T13:12:22;6.60;99.90
64855;DHT22;51321;50.428;8.378;2024-01-30T13:15:03;6.60;99.90
64855;DHT22;51321;50.428;8.378;2024-01-30T13:17:44;6.70;99.90
64855;DHT22;51321;50.428;8.378;2024-01-30T13:20:27;6.70;99.90
64855;DHT22;51321;50.428;8.378;2024-01-30T13:23:08;6.70;99.90
64855;DHT22;51321;50.428;8.378;2024-01-30T13:25:50;6.80;99.90
64855;DHT22;51321;50.428;8.378;2024-01-30T13:28:33;6.80;99.90
64855;DHT22;51321;50.428;8.378;2024-01-30T13:31:14;6.80;99.90
64855;DHT22;51321;50.428;8.378;2024-01-30T13:33:56;6.90;99.90
64855;DHT22;51321;50.428;8.378;2024-01-30T13:36:37;7.00;99.90
64855;DHT22;51321;50.428;8.378;2024-01-30T13:39:20;7.00;99.90
64855;DHT22;51321;50.428;8.378;2024-01-30T13:42:02;7.00;99.90
64855;DHT22;51321;50.428;8.378;2024-01-30T13:44:44;7.10;99.90
64855;DHT22;51321;50.428;8.378;2024-01-30T13:47:24;7.00;99.90
64855;DHT22;51321;50.428;8.378;2024-01-30T13:50:05;7.00;99.90
64855;DHT22;51321;50.428;8.378;2024-01-30T13:52:47;7.00;99.90
64855;DHT22;51321;50.428;8.378;2024-01-30T13:55:29;7.00;99.90
64855;DHT22;51321;50.428;8.378;2024-01-30T13:58:11;7.00;99.90
64855;DHT22;51321;50.428;8.378;2024-01-30T14:00:52;7.10;99.90
64855;DHT22;51321;50.428;8.378;2024-01-30T14:03:32;7.00;99.90
64855;DHT22;51321;50.428;8.378;2024-01-30T14:06:14;7.00;99.90
64855;DHT22;51321;50.428;8.378;2024-01-30T14:08:55;7.00;99.90
64855;DHT22;51321;50.428;8.378;2024-01-30T14:11:35;7.00;99.90
64855;DHT22;51321;50.428;8.378;2024-01-30T14:14:22;7.00;99.90
64855;DHT22;51321;50.428;8.378;2024-01-30T14:17:04;7.00;99.90
64855;DHT22;51321;50.428;8.378;2024-01-30T14:19:47;7.00;99.90
64855;DHT22;51321;50.428;8.378;2024-01-30T14:22:28;6.90;99.90
64855;DHT22;51321;50.428;8.378;2024-01-30T14:25:09;6.90;99.90
64855;DHT22;51321;50.428;8.378;2024-01-30T14:27:49;6.80;99.90
64855;DHT22;51321;50.428;8.378;2024-01-30T14:30:33;6.80;99.90
64855;DHT22;51321;50.428;8.378;2024-01-30T14:33:14;6.70;99.90
64855;DHT22;51321;50.428;8.378;2024-01-30T14:35:56;6.70;99.90
64855;DHT22;51321;50.428;8.378;2024-01-30T14:38:36;6.80;99.90
64855;DHT22;51321;50.428;8.378;2024-01-30T14:41:18;6.90;99.90
64855;DHT22;51321;50.428;8.378;2024-01-30T14:44:03;6.80;99.90
64855;DHT22;51321;50.428;8.378;2024-01-30T14:46:46;6.80;99.90
64855;DHT22;51321;50.428;8.378;2024-01-30T14:49:27;6.80;99.90
64855;DHT22;51321;50.428;8.378;2024-01-30T14:52:08;6.80;99.90
64855;DHT22;51321;50.428;8.378;2024-01-30T14:54:50;6.70;99.90
64855;DHT22;51321;50.428;8.378;2024-01-30T14:57:31;6.70;99.90
64855;DHT22;51321;50.428;8.378;2024-01-30T15:00:15;6.70;99.90
64855;DHT22;51321;50.428;8.378;2024-01-30T15:02:58;6.70;99.90
64855;DHT22;51321;50.428;8.378;2024-01-30T15:05:38;6.60;99.90
64855;DHT22;51321;50.428;8.378;2024-01-30T15:08:19;6.50;99.90
64855;DHT22;51321;50.428;8.378;2024-01-30T15:10:59;6.50;99.90
64855;DHT22;51321;50.428;8.378;2024-01-30T15:13:43;6.60;99.90
64855;DHT22;51321;50.428;8.378;2024-01-30T15:16:24;6.40;99.90
64855;DHT22;51321;50.428;8.378;2024-01-30T15:19:08;6.40;99.90
64855;DHT22;51321;50.428;8.378;2024-01-30T15:21:49;6.30;99.90
64855;DHT22;51321;50.428;8.378;2024-01-30T15:24:30;6.30;99.90
64855;DHT22;51321;50.428;8.378;2024-01-30T15:27:11;6.30;99.90
64855;DHT22;51321;50.428;8.378;2024-01-30T15:29:52;6.50;99.90
64855;DHT22;51321;50.428;8.378;2024-01-30T15:32:32;6.40;99.90
64855;DHT22;51321;50.428;8.378;2024-01-30T15:35:15;6.30;99.90
64855;DHT22;51321;50.428;8.378;2024-01-30T15:37:56;6.20;99.90
64855;DHT22;51321;50.428;8.378;2024-01-30T15:40:37;6.10;99.90
64855;DHT22;51321;50.428;8.378;2024-01-30T15:43:18;6.10;99.90
64855;DHT22;51321;50.428;8.378;2024-01-30T15:45:59;6.10;99.90
64855;DHT22;51321;50.428;8.378;2024-01-30T15:48:41;6.00;99.90
64855;DHT22;51321;50.428;8.378;2024-01-30T15:51:23;6.00;99.90
64855;DHT22;51321;50.428;8.378;2024-01-30T15:54:05;6.00;99.90
64855;DHT22;51321;50.428;8.378;2024-01-30T15:56:45;6.10;99.90
64855;DHT22;51321;50.428;8.378;2024-01-30T15:59:26;6.00;99.90
64855;DHT22;51321;50.428;8.378;2024-01-30T16:02:07;6.00;99.90
64855;DHT22;51321;50.428;8.378;2024-01-30T16:04:48;5.80;99.90
64855;DHT22;51321;50.428;8.378;2024-01-30T16:07:31;5.70;99.90
64855;DHT22;51321;50.428;8.378;2024-01-30T16:10:12;5.70;99.90
64855;DHT22;51321;50.428;8.378;2024-01-30T16:12:55;5.70;99.90
64855;DHT22;51321;50.428;8.378;2024-01-30T16:15:35;5.70;99.90
64855;DHT22;51321;50.428;8.378;2024-01-30T16:18:18;5.70;99.90
64855;DHT22;51321;50.428;8.378;2024-01-30T16:21:00;5.60;99.90
64855;DHT22;51321;50.428;8.378;2024-01-30T16:23:42;5.40;99.90
64855;DHT22;51321;50.428;8.378;2024-01-30T16:26:22;5.40;99.90
64855;DHT22;51321;50.428;8.378;2024-01-30T16:29:04;5.40;99.90
64855;DHT22;51321;50.428;8.378;2024-01-30T16:31:44;5.30;99.90
64855;DHT22;51321;50.428;8.378;2024-01-30T16:34:25;5.30;99.90
64855;DHT22;51321;50.428;8.378;2024-01-30T16:37:05;5.20;99.90
64855;DHT22;51321;50.428;8.378;2024-01-30T16:39:49;5.30;99.90
64855;DHT22;51321;50.428;8.378;2024-01-30T16:42:29;5.30;99.90
64855;DHT22;51321;50.428;8.378;2024-01-30T16:45:10;5.10;99.90
64855;DHT22;51321;50.428;8.378;2024-01-30T16:47:51;5.00;99.90
64855;DHT22;51321;50.428;8.378;2024-01-30T16:50:32;5.10;99.90
64855;DHT22;51321;50.428;8.378;2024-01-30T16:53:12;5.10;99.90
64855;DHT22;51321;50.428;8.378;2024-01-30T16:55:54;5.00;99.90
64855;DHT22;51321;50.428;8.378;2024-01-30T16:58:35;5.00;99.90
64855;DHT22;51321;50.428;8.378;2024-01-30T17:01:16;4.90;99.90
64855;DHT22;51321;50.428;8.378;2024-01-30T17:03:57;4.90;99.90
64855;DHT22;51321;50.428;8.378;2024-01-30T17:06:38;4.90;99.90
64855;DHT22;51321;50.428;8.378;2024-01-30T17:09:20;5.00;99.90
64855;DHT22;51321;50.428;8.378;2024-01-30T17:12:03;4.90;99.90